Airfield :
LOGIN :

Register | Disclaimer

   EN    FR    IT 

 










Legend :    VFR   Marginal VFR   IFR   Intensive IFR   Very Intensive IFR
Visi :
Ceiling :
>= 8 km
>= 3000ft
5 to 8 km
1000 to 3000 ft
1500m to 5 km
500 to 1000 ft
800 to 1500m
200 to 500 ft
< 800m
< 200 ft
Symbols :   Thunderstorms  Fog  Heavy snow  Heavy precipitations  Wind > 20 kt
SIGMETs :     Misc.  Thunderstorms  Icing  Turbulence  Mountain Waves  Volcanic Ashes






- Airport Elevation : 183 ft
- IATA code : HAJ


EDDV - Hanover/Langenhagen Int.

CURRENT METAR :
  • 202320Z AUTO 27015G27KT 240V300 9999 SCT016 BKN039 13/10 Q1015

EXPIRED METARs :
  • 202250Z AUTO 27015KT 9999 BKN016 BKN025 14/11 Q1014
  • 202220Z AUTO 28017KT 9999 SCT017 BKN022 OVC028 14/11 Q1014
  • 202150Z AUTO 28020G32KT 9999 SCT017 BKN026 OVC036 14/11 Q1014
  • 202120Z AUTO 27019KT 240V300 9999 BKN016 BKN023 BKN032 15/12 Q1013 TEMPO BKN012
  • 202050Z AUTO 26020G33KT 9999 BKN017 BKN025 BKN035 15/13 Q1012 BECMG 26015KT

TAF TAF EDDV
Valid from the 21 at 00:00 until the 22 at 00:00 UTC


202300Z 2100/2124 28015G25KT 9999 BKN030
BECMG 2100/2103 25012KT
PROB40
TEMPO 2100/2107 SCT007 BKN012
BECMG 2103/2106 26015G25KT
PROB30
TEMPO 2108/2116 28020G30KT
BECMG 2116/2119 29010KT
BECMG 2119/2121 30005KT



MET'MAP, your aeronautical weather chart ! - Copyright ORBIFLY December 2007 - Disclaimer

ORBIFLY MET'MAP TEAM :

Programming & Development : Alexandra Zaïnal
Original concept : Baudouin d'Aumeries
Technical & hardware support : Manuel Goepfert
Assistance : Marc-Olivier Méhu

Contact : metmap@orbifly.com




SOURCES & CREDITS :

   NOAA